Time,TemperatureF,DewpointF,PressureIn,WindDirection,WindDirectionDegrees,WindSpeedMPH,WindSpeedGustMPH,Humidity,HourlyPrecipIn,Conditions,Clouds,dailyrainin,SoftwareType,DateUTC
2013-11-27 00:12:00,33.9,33.0,30.14,South,174,7.0,13.0,97,0.00,,,0.00,weatherlink.com 1.10,2013-11-27 05:12:00,
2013-11-27 00:27:00,34.0,33.0,30.12,SSE,158,4.0,11.0,97,0.00,,,0.00,weatherlink.com 1.10,2013-11-27 05:27:00,
2013-11-27 00:42:00,34.6,34.0,30.10,East,101,6.0,15.0,97,0.00,,,0.00,weatherlink.com 1.10,2013-11-27 05:42:00,
2013-11-27 00:57:00,35.1,34.0,30.08,SSE,160,7.0,16.0,97,0.06,,,0.06,weatherlink.com 1.10,2013-11-27 05:57:00,
2013-11-27 01:12:00,34.9,34.0,30.05,South,173,2.0,11.0,97,0.12,,,0.12,weatherlink.com 1.10,2013-11-27 06:12:00,
2013-11-27 01:28:00,35.3,35.0,30.03,SSW,197,4.0,13.0,97,0.19,,,0.19,weatherlink.com 1.10,2013-11-27 06:28:00,
2013-11-27 01:43:00,35.8,35.0,30.01,South,172,13.0,15.0,98,0.25,,,0.25,weatherlink.com 1.10,2013-11-27 06:43:00,
2013-11-27 01:58:00,36.5,36.0,29.99,SE,141,6.0,13.0,97,0.24,,,0.30,weatherlink.com 1.10,2013-11-27 06:58:00,
2013-11-27 02:13:00,36.7,36.0,29.96,SSE,161,4.0,8.0,97,0.23,,,0.35,weatherlink.com 1.10,2013-11-27 07:13:00,
2013-11-27 02:28:00,37.5,37.0,29.95,ENE,78,4.0,15.0,98,0.21,,,0.40,weatherlink.com 1.10,2013-11-27 07:28:00,
2013-11-27 02:43:00,38.4,38.0,29.92,SSE,150,5.0,15.0,98,0.21,,,0.46,weatherlink.com 1.10,2013-11-27 07:43:00,
2013-11-27 02:58:00,38.8,38.0,29.89,South,177,7.0,15.0,97,0.21,,,0.51,weatherlink.com 1.10,2013-11-27 07:58:00,
2013-11-27 03:13:00,39.4,39.0,29.87,SW,228,8.0,27.0,98,0.23,,,0.58,weatherlink.com 1.10,2013-11-27 08:13:00,
2013-11-27 03:28:00,39.7,39.0,29.85,SE,141,5.0,14.0,98,0.24,,,0.05,weatherlink.com 1.10,2013-11-27 08:28:00,
2013-11-27 03:43:00,40.5,40.0,29.84,South,173,7.0,17.0,98,0.23,,,0.10,weatherlink.com 1.10,2013-11-27 08:43:00,
2013-11-27 03:58:00,41.0,41.0,29.82,SSW,204,4.0,18.0,98,0.22,,,0.14,weatherlink.com 1.10,2013-11-27 08:58:00,
2013-11-27 04:13:00,41.5,41.0,29.80,ENE,78,6.0,16.0,98,0.18,,,0.17,weatherlink.com 1.10,2013-11-27 09:13:00,
2013-11-27 04:28:00,42.4,42.0,29.78,SW,215,3.0,22.0,98,0.15,,,0.20,weatherlink.com 1.10,2013-11-27 09:28:00,
2013-11-27 04:43:00,43.1,43.0,29.78,SW,232,2.0,13.0,98,0.12,,,0.22,weatherlink.com 1.10,2013-11-27 09:43:00,
2013-11-27 04:58:00,43.4,43.0,29.76,SSE,161,4.0,10.0,98,0.12,,,0.26,weatherlink.com 1.10,2013-11-27 09:58:00,
2013-11-27 05:13:00,43.9,43.0,29.75,SW,222,0.0,7.0,98,0.10,,,0.27,weatherlink.com 1.10,2013-11-27 10:13:00,
2013-11-27 05:28:00,44.2,44.0,29.75,NW,314,1.0,5.0,98,0.10,,,0.30,weatherlink.com 1.10,2013-11-27 10:28:00,
2013-11-27 05:43:00,44.6,44.0,29.74,ESE,117,5.0,5.0,98,0.09,,,0.31,weatherlink.com 1.10,2013-11-27 10:43:00,
2013-11-27 05:58:00,44.3,44.0,29.74,NW,305,1.0,4.0,98,0.06,,,0.32,weatherlink.com 1.10,2013-11-27 10:58:00,
2013-11-27 06:13:00,44.1,44.0,29.74,WNW,302,2.0,2.0,98,0.05,,,0.33,weatherlink.com 1.10,2013-11-27 11:13:00,
2013-11-27 06:28:00,41.5,41.0,29.74,NW,322,2.0,3.0,96,0.07,,,0.37,weatherlink.com 1.10,2013-11-27 11:28:00,
2013-11-27 06:43:00,43.1,43.0,29.73,NW,311,2.0,5.0,99,0.10,,,0.41,weatherlink.com 1.10,2013-11-27 11:43:00,
2013-11-27 06:59:00,41.6,41.0,29.74,SSE,160,2.0,10.0,97,0.11,,,0.43,weatherlink.com 1.10,2013-11-27 11:59:00,
2013-11-27 07:14:00,40.5,40.0,29.75,SW,219,1.0,5.0,97,0.14,,,0.47,weatherlink.com 1.10,2013-11-27 12:14:00,
2013-11-27 07:29:00,39.3,39.0,29.77,NE,49,3.0,5.0,97,0.14,,,0.51,weatherlink.com 1.10,2013-11-27 12:29:00,
2013-11-27 07:44:00,38.3,38.0,29.76,SSE,160,1.0,2.0,97,0.11,,,0.53,weatherlink.com 1.10,2013-11-27 12:44:00,
2013-11-27 07:59:00,37.9,37.0,29.76,SSW,211,0.0,1.0,97,0.11,,,0.55,weatherlink.com 1.10,2013-11-27 12:59:00,
2013-11-27 08:14:00,37.7,37.0,29.76,SSE,158,3.0,4.0,98,0.09,,,0.56,weatherlink.com 1.10,2013-11-27 13:14:00,
2013-11-27 08:29:00,37.3,37.0,29.75,SSE,162,0.0,2.0,98,0.06,,,0.57,weatherlink.com 1.10,2013-11-27 13:29:00,
2013-11-27 08:44:00,37.4,37.0,29.74,South,184,4.0,5.0,98,0.04,,,0.57,weatherlink.com 1.10,2013-11-27 13:44:00,
2013-11-27 08:59:00,37.2,37.0,29.75,SSW,201,3.0,7.0,98,0.03,,,0.58,weatherlink.com 1.10,2013-11-27 13:59:00,
2013-11-27 09:14:00,36.5,36.0,29.78,SSW,198,8.0,10.0,97,0.02,,,0.58,weatherlink.com 1.10,2013-11-27 14:14:00,
2013-11-27 09:29:00,35.6,35.0,29.80,SW,221,2.0,12.0,97,0.02,,,0.59,weatherlink.com 1.10,2013-11-27 14:29:00,
2013-11-27 09:44:00,34.4,34.0,29.77,NW,305,1.0,7.0,97,0.03,,,0.60,weatherlink.com 1.10,2013-11-27 14:44:00,
2013-11-27 09:59:00,33.9,33.0,29.77,NW,316,2.0,4.0,97,0.02,,,0.60,weatherlink.com 1.10,2013-11-27 14:59:00,
2013-11-27 10:14:00,33.5,33.0,29.78,SSW,204,2.0,8.0,97,0.02,,,0.60,weatherlink.com 1.10,2013-11-27 15:14:00,
2013-11-27 10:29:00,33.3,33.0,29.77,SSE,160,4.0,6.0,97,0.01,,,0.60,weatherlink.com 1.10,2013-11-27 15:29:00,
2013-11-27 10:44:00,33.1,32.0,29.77,South,176,6.0,8.0,97,0.00,,,0.60,weatherlink.com 1.10,2013-11-27 15:44:00,
2013-11-27 10:59:00,32.8,32.0,29.76,ESE,106,4.0,5.0,97,0.00,,,0.60,weatherlink.com 1.10,2013-11-27 15:59:00,
2013-11-27 11:14:00,32.6,32.0,29.74,SW,214,2.0,7.0,97,0.00,,,0.60,weatherlink.com 1.10,2013-11-27 16:14:00,
2013-11-27 11:29:00,32.4,32.0,29.73,NNW,330,2.0,6.0,97,0.00,,,0.60,weatherlink.com 1.10,2013-11-27 16:29:00,
2013-11-27 11:44:00,32.4,32.0,29.75,SW,233,0.0,10.0,97,0.00,,,0.60,weatherlink.com 1.10,2013-11-27 16:44:00,
2013-11-27 11:59:00,32.2,32.0,29.73,South,172,4.0,7.0,97,0.00,,,0.60,weatherlink.com 1.10,2013-11-27 16:59:00,
2013-11-27 12:14:00,32.0,31.0,29.74,SW,217,5.0,7.0,97,0.00,,,0.60,weatherlink.com 1.10,2013-11-27 17:14:00,
2013-11-27 12:29:00,31.7,31.0,29.74,SSE,148,3.0,7.0,97,0.00,,,0.60,weatherlink.com 1.10,2013-11-27 17:29:00,
2013-11-27 12:44:00,31.6,31.0,29.74,South,172,1.0,7.0,97,0.00,,,0.60,weatherlink.com 1.10,2013-11-27 17:44:00,
2013-11-27 12:59:00,31.3,31.0,29.73,SSE,162,5.0,7.0,97,0.00,,,0.60,weatherlink.com 1.10,2013-11-27 17:59:00,
2013-11-27 13:14:00,31.1,30.0,29.73,NW,304,2.0,8.0,97,0.00,,,0.60,weatherlink.com 1.10,2013-11-27 18:14:00,
2013-11-27 13:29:00,31.0,30.0,29.72,SE,129,1.0,9.0,97,0.00,,,0.60,weatherlink.com 1.10,2013-11-27 18:29:00,
2013-11-27 13:44:00,30.8,30.0,29.73,South,174,4.0,9.0,97,0.00,,,0.60,weatherlink.com 1.10,2013-11-27 18:44:00,
2013-11-27 13:59:00,30.6,30.0,29.72,SSE,167,4.0,6.0,97,0.00,,,0.60,weatherlink.com 1.10,2013-11-27 18:59:00,
2013-11-27 14:14:00,30.5,30.0,29.71,SW,214,3.0,8.0,97,0.00,,,0.60,weatherlink.com 1.10,2013-11-27 19:14:00,
2013-11-27 14:29:00,30.4,30.0,29.73,SSW,210,4.0,8.0,97,0.00,,,0.60,weatherlink.com 1.10,2013-11-27 19:29:00,
2013-11-27 14:44:00,30.1,29.0,29.72,SSW,195,6.0,9.0,97,0.00,,,0.60,weatherlink.com 1.10,2013-11-27 19:44:00,
2013-11-27 14:59:00,30.0,29.0,29.72,SSW,207,3.0,7.0,97,0.00,,,0.60,weatherlink.com 1.10,2013-11-27 19:59:00,
2013-11-27 15:15:00,29.9,29.0,29.72,SSW,211,5.0,8.0,97,0.00,,,0.60,weatherlink.com 1.10,2013-11-27 20:15:00,
2013-11-27 15:30:00,29.8,29.0,29.73,SW,217,1.0,7.0,97,0.00,,,0.60,weatherlink.com 1.10,2013-11-27 20:30:00,
2013-11-27 15:45:00,29.6,29.0,29.72,SSW,195,5.0,6.0,97,0.00,,,0.60,weatherlink.com 1.10,2013-11-27 20:45:00,
2013-11-27 16:00:00,29.5,29.0,29.73,South,172,6.0,6.0,97,0.00,,,0.60,weatherlink.com 1.10,2013-11-27 21:00:00,
2013-11-27 16:15:00,29.2,28.0,29.74,NNW,335,3.0,10.0,96,0.00,,,0.60,weatherlink.com 1.10,2013-11-27 21:15:00,
2013-11-27 16:30:00,29.0,28.0,29.72,SW,221,2.0,8.0,97,0.00,,,0.60,weatherlink.com 1.10,2013-11-27 21:30:00,
2013-11-27 16:45:00,28.9,28.0,29.73,South,169,4.0,9.0,97,0.00,,,0.60,weatherlink.com 1.10,2013-11-27 21:45:00,
2013-11-27 17:00:00,28.7,28.0,29.72,SSW,210,3.0,7.0,97,0.00,,,0.60,weatherlink.com 1.10,2013-11-27 22:00:00,
2013-11-27 17:15:00,28.7,28.0,29.75,South,184,8.0,8.0,97,0.00,,,0.60,weatherlink.com 1.10,2013-11-27 22:15:00,
2013-11-27 17:30:00,28.5,28.0,29.75,SW,214,2.0,10.0,97,0.00,,,0.60,weatherlink.com 1.10,2013-11-27 22:30:00,
2013-11-27 17:45:00,28.5,28.0,29.77,South,183,3.0,7.0,97,0.00,,,0.60,weatherlink.com 1.10,2013-11-27 22:45:00,
2013-11-27 18:00:00,28.2,28.0,29.77,SE,142,9.0,15.0,97,0.00,,,0.60,weatherlink.com 1.10,2013-11-27 23:00:00,
2013-11-27 18:15:00,28.2,27.0,29.77,SW,215,6.0,11.0,96,0.00,,,0.60,weatherlink.com 1.10,2013-11-27 23:15:00,
2013-11-27 18:30:00,28.1,27.0,29.77,East,94,4.0,11.0,95,0.00,,,0.60,weatherlink.com 1.10,2013-11-27 23:30:00,
2013-11-27 18:45:00,28.1,27.0,29.79,South,172,2.0,10.0,95,0.00,,,0.60,weatherlink.com 1.10,2013-11-27 23:45:00,
2013-11-27 19:00:00,28.1,27.0,29.80,ESE,104,2.0,10.0,94,0.00,,,0.60,weatherlink.com 1.10,2013-11-28 00:00:00,
2013-11-27 19:15:00,28.1,27.0,29.80,SSW,211,6.0,10.0,95,0.00,,,0.60,weatherlink.com 1.10,2013-11-28 00:15:00,
2013-11-27 19:30:00,28.1,27.0,29.79,SE,133,3.0,15.0,95,0.00,,,0.60,weatherlink.com 1.10,2013-11-28 00:30:00,
2013-11-27 19:45:00,28.2,27.0,29.79,SSW,194,5.0,9.0,94,0.00,,,0.60,weatherlink.com 1.10,2013-11-28 00:45:00,
2013-11-27 20:00:00,27.9,26.0,29.80,SSW,212,6.0,17.0,93,0.00,,,0.60,weatherlink.com 1.10,2013-11-28 01:00:00,
2013-11-27 20:15:00,27.4,25.0,29.81,NE,34,4.0,19.0,92,0.00,,,0.60,weatherlink.com 1.10,2013-11-28 01:15:00,
2013-11-27 20:30:00,27.1,25.0,29.81,South,169,6.0,13.0,90,0.00,,,0.60,weatherlink.com 1.10,2013-11-28 01:30:00,
2013-11-27 20:45:00,26.6,24.0,29.82,SSE,151,2.0,15.0,89,0.00,,,0.60,weatherlink.com 1.10,2013-11-28 01:45:00,
2013-11-27 21:00:00,26.1,24.0,29.82,SSW,200,6.0,11.0,90,0.00,,,0.60,weatherlink.com 1.10,2013-11-28 02:00:00,
2013-11-27 21:15:00,25.7,23.0,29.83,SSW,210,5.0,11.0,90,0.00,,,0.60,weatherlink.com 1.10,2013-11-28 02:15:00,
2013-11-27 21:30:00,25.4,23.0,29.84,SSE,163,5.0,10.0,91,0.00,,,0.60,weatherlink.com 1.10,2013-11-28 02:30:00,
2013-11-27 21:45:00,24.9,22.0,29.84,SSE,151,8.0,17.0,89,0.00,,,0.60,weatherlink.com 1.10,2013-11-28 02:45:00,
2013-11-27 22:00:00,24.4,21.0,29.84,SSW,208,8.0,18.0,88,0.00,,,0.60,weatherlink.com 1.10,2013-11-28 03:00:00,
2013-11-27 22:15:00,24.1,21.0,29.84,SW,231,8.0,15.0,89,0.00,,,0.60,weatherlink.com 1.10,2013-11-28 03:15:00,
2013-11-27 22:30:00,23.5,20.0,29.85,SW,233,6.0,14.0,85,0.00,,,0.60,weatherlink.com 1.10,2013-11-28 03:30:00,
2013-11-27 22:46:00,23.2,19.0,29.87,SSE,148,5.0,22.0,84,0.00,,,0.60,weatherlink.com 1.10,2013-11-28 03:46:00,
2013-11-27 23:01:00,23.0,19.0,29.88,SSW,211,8.0,15.0,85,0.00,,,0.60,weatherlink.com 1.10,2013-11-28 04:01:00,
2013-11-27 23:16:00,22.8,19.0,29.91,SSE,162,6.0,12.0,86,0.00,,,0.60,weatherlink.com 1.10,2013-11-28 04:16:00,
2013-11-27 23:31:00,22.6,19.0,29.91,South,183,8.0,12.0,86,0.00,,,0.60,weatherlink.com 1.10,2013-11-28 04:31:00,
2013-11-27 23:46:00,22.3,19.0,29.92,SW,232,4.0,10.0,88,0.00,,,0.60,weatherlink.com 1.10,2013-11-28 04:46:00,